ムンバイ の空港の天気 - METARとTAF

チャットラパティー・シヴァージー国際空港 ( VABB / BOM ) - インド ムンバイ
飛行場実況気象(Metar)
観測時間05/23 06:00 IST (05/23 00:30 UTC)
風向・風速西 3m/s
視程4000m
天気現象煙霧
少しの雲 雲底高度 550m
全天の4割程度の雲 雲底高度 3050m
気温30℃
湿度75%
気圧1006hPa
METARVABB 230030Z 26006KT 4000 HZ FEW018 SCT100 30/25 Q1006 NOSIG
過去の天気等 Google飛行場航空写真 Wunderground天気予報

過去48時間のMETAR

飛行場予報(TAF)
発表時間: 5/23 04:30 IST (5/22 23:00 UTC)
予報対象時間: 23日5時 IST ~ 24日11時 IST
風向・風速不定 2m/s
視程3,000m
天気現象煙霧
少しの雲 雲底高度 610m
23日9時 IST ~ 23日11時 IST に徐々に
風向・風速西南西 5m/s
視程4,000m
天気現象煙霧 煙
23日13時 IST ~ 23日15時 IST に徐々に
風向・風速西南西 4m/s 瞬間風速 9m/s
視程5,000m
天気現象煙霧 煙
23日19時 IST ~ 23日21時 IST に徐々に
風向・風速西南西 4m/s
視程4,000m
天気現象煙霧
24日2時 IST ~ 24日4時 IST に徐々に
風向・風速不定 2m/s
視程3,000m
天気現象煙霧
24日9時 IST ~ 24日11時 IST に徐々に
風向・風速西南西 5m/s
視程4,000m
天気現象煙霧 煙
TAF VABB 222300Z 2300/2406 VRB03KT 3000 HZ FEW020
BECMG 2304/2306 24010KT 4000 HZ FU
BECMG 2308/2310 25008G18KT 5000 HZ FU
BECMG 2314/2316 25008KT 4000 HZ
BECMG 2321/2323 VRB03KT 3000 HZ
BECMG 2404/2406 24010KT 4000 HZ FU